sensor_id;sensor_type;location;lat;lon;timestamp;temperature;humidity
23719;DHT22;43322;52.230;5.702;2024-03-02T00:01:23;8.60;99.90
23719;DHT22;43322;52.230;5.702;2024-03-02T00:03:50;8.50;99.90
23719;DHT22;43322;52.230;5.702;2024-03-02T00:06:20;8.70;99.90
23719;DHT22;43322;52.230;5.702;2024-03-02T00:08:48;8.80;99.90
23719;DHT22;43322;52.230;5.702;2024-03-02T00:11:15;8.60;99.90
23719;DHT22;43322;52.230;5.702;2024-03-02T00:13:44;8.70;99.90
23719;DHT22;43322;52.230;5.702;2024-03-02T00:16:11;8.60;99.90
23719;DHT22;43322;52.230;5.702;2024-03-02T00:18:38;8.70;99.90
23719;DHT22;43322;52.230;5.702;2024-03-02T00:21:07;8.70;99.90
23719;DHT22;43322;52.230;5.702;2024-03-02T00:23:37;8.70;99.90
23719;DHT22;43322;52.230;5.702;2024-03-02T00:26:05;8.80;99.90
23719;DHT22;43322;52.230;5.702;2024-03-02T00:28:35;8.60;99.90
23719;DHT22;43322;52.230;5.702;2024-03-02T00:31:03;8.80;99.90
23719;DHT22;43322;52.230;5.702;2024-03-02T00:33:32;8.70;99.90
23719;DHT22;43322;52.230;5.702;2024-03-02T00:36:00;8.90;99.90
23719;DHT22;43322;52.230;5.702;2024-03-02T00:38:27;8.90;99.90
23719;DHT22;43322;52.230;5.702;2024-03-02T00:40:57;9.00;99.90
23719;DHT22;43322;52.230;5.702;2024-03-02T00:43:41;8.90;99.90
23719;DHT22;43322;52.230;5.702;2024-03-02T00:46:10;9.10;99.90
23719;DHT22;43322;52.230;5.702;2024-03-02T00:48:37;8.90;99.90
23719;DHT22;43322;52.230;5.702;2024-03-02T00:51:04;8.90;99.90
23719;DHT22;43322;52.230;5.702;2024-03-02T00:53:32;8.80;99.90
23719;DHT22;43322;52.230;5.702;2024-03-02T00:56:01;8.90;99.90
23719;DHT22;43322;52.230;5.702;2024-03-02T00:58:28;8.80;99.90
23719;DHT22;43322;52.230;5.702;2024-03-02T01:00:55;9.00;99.90
23719;DHT22;43322;52.230;5.702;2024-03-02T01:03:22;9.00;99.90
23719;DHT22;43322;52.230;5.702;2024-03-02T01:05:49;9.10;99.90
23719;DHT22;43322;52.230;5.702;2024-03-02T01:08:16;9.20;99.90
23719;DHT22;43322;52.230;5.702;2024-03-02T01:10:43;8.90;99.90
23719;DHT22;43322;52.230;5.702;2024-03-02T01:13:11;9.20;99.90
23719;DHT22;43322;52.230;5.702;2024-03-02T01:15:38;9.20;99.90
23719;DHT22;43322;52.230;5.702;2024-03-02T01:18:05;9.10;99.90
23719;DHT22;43322;52.230;5.702;2024-03-02T01:20:32;9.10;99.90
23719;DHT22;43322;52.230;5.702;2024-03-02T01:22:58;9.10;99.90
23719;DHT22;43322;52.230;5.702;2024-03-02T01:25:25;9.10;99.90
23719;DHT22;43322;52.230;5.702;2024-03-02T01:27:52;9.10;99.90
23719;DHT22;43322;52.230;5.702;2024-03-02T01:30:20;9.10;99.90
23719;DHT22;43322;52.230;5.702;2024-03-02T01:32:47;9.00;99.90
23719;DHT22;43322;52.230;5.702;2024-03-02T01:35:14;8.90;99.90
23719;DHT22;43322;52.230;5.702;2024-03-02T01:37:41;8.70;99.90
23719;DHT22;43322;52.230;5.702;2024-03-02T01:40:09;9.10;99.90
23719;DHT22;43322;52.230;5.702;2024-03-02T01:42:37;8.60;99.90
23719;DHT22;43322;52.230;5.702;2024-03-02T01:45:04;8.80;99.90
23719;DHT22;43322;52.230;5.702;2024-03-02T01:47:33;8.60;99.90
23719;DHT22;43322;52.230;5.702;2024-03-02T01:50:00;8.70;99.90
23719;DHT22;43322;52.230;5.702;2024-03-02T01:52:27;8.70;99.90
23719;DHT22;43322;52.230;5.702;2024-03-02T01:54:55;8.80;99.90
23719;DHT22;43322;52.230;5.702;2024-03-02T01:57:21;8.70;99.90
23719;DHT22;43322;52.230;5.702;2024-03-02T01:59:48;8.60;99.90
23719;DHT22;43322;52.230;5.702;2024-03-02T02:02:16;8.60;99.90
23719;DHT22;43322;52.230;5.702;2024-03-02T02:04:44;8.50;99.90
23719;DHT22;43322;52.230;5.702;2024-03-02T02:07:11;8.50;99.90
23719;DHT22;43322;52.230;5.702;2024-03-02T02:09:40;8.60;99.90
23719;DHT22;43322;52.230;5.702;2024-03-02T02:12:07;8.40;99.90
23719;DHT22;43322;52.230;5.702;2024-03-02T02:14:34;8.30;99.90
23719;DHT22;43322;52.230;5.702;2024-03-02T02:17:01;8.40;99.90
23719;DHT22;43322;52.230;5.702;2024-03-02T02:19:27;8.30;99.90
23719;DHT22;43322;52.230;5.702;2024-03-02T02:21:56;8.40;99.90
23719;DHT22;43322;52.230;5.702;2024-03-02T02:24:23;8.40;99.90
23719;DHT22;43322;52.230;5.702;2024-03-02T02:26:49;8.30;99.90
23719;DHT22;43322;52.230;5.702;2024-03-02T02:29:16;8.30;99.90
23719;DHT22;43322;52.230;5.702;2024-03-02T02:31:43;8.30;99.90
23719;DHT22;43322;52.230;5.702;2024-03-02T02:34:10;8.20;99.90
23719;DHT22;43322;52.230;5.702;2024-03-02T02:36:38;8.20;99.90
23719;DHT22;43322;52.230;5.702;2024-03-02T02:39:11;8.20;99.90
23719;DHT22;43322;52.230;5.702;2024-03-02T02:41:39;8.20;99.90
23719;DHT22;43322;52.230;5.702;2024-03-02T02:44:06;8.30;99.90
23719;DHT22;43322;52.230;5.702;2024-03-02T02:46:33;8.20;99.90
23719;DHT22;43322;52.230;5.702;2024-03-02T02:48:59;8.20;99.90
23719;DHT22;43322;52.230;5.702;2024-03-02T02:51:26;8.20;99.90
23719;DHT22;43322;52.230;5.702;2024-03-02T02:53:53;8.20;99.90
23719;DHT22;43322;52.230;5.702;2024-03-02T02:56:21;8.20;99.90
23719;DHT22;43322;52.230;5.702;2024-03-02T02:58:48;7.90;99.90
23719;DHT22;43322;52.230;5.702;2024-03-02T03:01:15;8.10;99.90
23719;DHT22;43322;52.230;5.702;2024-03-02T03:03:43;8.20;99.90
23719;DHT22;43322;52.230;5.702;2024-03-02T03:06:11;8.00;99.90
23719;DHT22;43322;52.230;5.702;2024-03-02T03:08:38;8.00;99.90
23719;DHT22;43322;52.230;5.702;2024-03-02T03:11:05;8.10;99.90
23719;DHT22;43322;52.230;5.702;2024-03-02T03:13:34;8.20;99.90
23719;DHT22;43322;52.230;5.702;2024-03-02T03:16:01;8.00;99.90
23719;DHT22;43322;52.230;5.702;2024-03-02T03:18:28;7.80;1.00
23719;DHT22;43322;52.230;5.702;2024-03-02T03:20:55;7.80;1.00
23719;DHT22;43322;52.230;5.702;2024-03-02T03:23:22;7.80;1.00
23719;DHT22;43322;52.230;5.702;2024-03-02T03:25:49;7.80;99.90
23719;DHT22;43322;52.230;5.702;2024-03-02T03:28:16;7.60;99.90
23719;DHT22;43322;52.230;5.702;2024-03-02T03:30:44;7.80;99.90
23719;DHT22;43322;52.230;5.702;2024-03-02T03:33:11;7.70;99.90
23719;DHT22;43322;52.230;5.702;2024-03-02T03:35:39;7.70;99.90
23719;DHT22;43322;52.230;5.702;2024-03-02T03:38:05;7.60;1.00
23719;DHT22;43322;52.230;5.702;2024-03-02T03:40:32;7.70;1.00
23719;DHT22;43322;52.230;5.702;2024-03-02T03:42:59;7.70;99.90
23719;DHT22;43322;52.230;5.702;2024-03-02T03:45:26;7.60;1.00
23719;DHT22;43322;52.230;5.702;2024-03-02T03:47:54;7.50;1.00
23719;DHT22;43322;52.230;5.702;2024-03-02T03:50:21;7.50;1.00
23719;DHT22;43322;52.230;5.702;2024-03-02T03:52:48;7.60;1.00
23719;DHT22;43322;52.230;5.702;2024-03-02T03:55:15;7.40;1.00
23719;DHT22;43322;52.230;5.702;2024-03-02T03:57:42;7.40;1.00
23719;DHT22;43322;52.230;5.702;2024-03-02T04:00:09;7.50;1.00
23719;DHT22;43322;52.230;5.702;2024-03-02T04:02:37;7.30;1.00
23719;DHT22;43322;52.230;5.702;2024-03-02T04:05:06;7.50;1.00
23719;DHT22;43322;52.230;5.702;2024-03-02T04:07:35;7.20;1.00
23719;DHT22;43322;52.230;5.702;2024-03-02T04:10:07;7.40;1.00
23719;DHT22;43322;52.230;5.702;2024-03-02T04:12:35;7.20;1.00
23719;DHT22;43322;52.230;5.702;2024-03-02T04:15:02;7.30;1.00
23719;DHT22;43322;52.230;5.702;2024-03-02T04:17:31;7.20;1.00
23719;DHT22;43322;52.230;5.702;2024-03-02T04:19:58;7.30;1.00
23719;DHT22;43322;52.230;5.702;2024-03-02T04:22:27;7.20;1.00
23719;DHT22;43322;52.230;5.702;2024-03-02T04:24:54;7.50;1.00
23719;DHT22;43322;52.230;5.702;2024-03-02T04:27:21;7.30;1.00
23719;DHT22;43322;52.230;5.702;2024-03-02T04:29:48;7.30;99.90
23719;DHT22;43322;52.230;5.702;2024-03-02T04:32:15;7.20;99.90
23719;DHT22;43322;52.230;5.702;2024-03-02T04:34:42;7.20;1.00
23719;DHT22;43322;52.230;5.702;2024-03-02T04:37:10;7.20;99.90
23719;DHT22;43322;52.230;5.702;2024-03-02T04:39:39;7.50;99.90
23719;DHT22;43322;52.230;5.702;2024-03-02T04:42:05;7.10;99.90
23719;DHT22;43322;52.230;5.702;2024-03-02T04:44:32;7.00;99.90
23719;DHT22;43322;52.230;5.702;2024-03-02T04:46:59;7.10;99.90
23719;DHT22;43322;52.230;5.702;2024-03-02T04:49:26;7.20;1.00
23719;DHT22;43322;52.230;5.702;2024-03-02T04:51:53;7.10;99.90
23719;DHT22;43322;52.230;5.702;2024-03-02T04:54:19;7.20;99.90
23719;DHT22;43322;52.230;5.702;2024-03-02T04:56:48;7.20;99.90
23719;DHT22;43322;52.230;5.702;2024-03-02T04:59:16;7.10;1.00
23719;DHT22;43322;52.230;5.702;2024-03-02T05:01:43;7.00;99.90
23719;DHT22;43322;52.230;5.702;2024-03-02T05:04:10;7.00;99.90
23719;DHT22;43322;52.230;5.702;2024-03-02T05:06:38;7.00;1.00
23719;DHT22;43322;52.230;5.702;2024-03-02T05:09:06;6.60;1.00
23719;DHT22;43322;52.230;5.702;2024-03-02T05:11:33;6.70;18.50
23719;DHT22;43322;52.230;5.702;2024-03-02T05:14:23;6.70;99.90
23719;DHT22;43322;52.230;5.702;2024-03-02T05:16:50;6.70;99.90
23719;DHT22;43322;52.230;5.702;2024-03-02T05:19:17;6.70;1.00
23719;DHT22;43322;52.230;5.702;2024-03-02T05:21:44;6.60;55.20
23719;DHT22;43322;52.230;5.702;2024-03-02T05:24:11;6.60;92.10
23719;DHT22;43322;52.230;5.702;2024-03-02T05:26:37;6.50;1.00
23719;DHT22;43322;52.230;5.702;2024-03-02T05:29:04;6.60;1.00
23719;DHT22;43322;52.230;5.702;2024-03-02T05:31:33;6.60;1.00
23719;DHT22;43322;52.230;5.702;2024-03-02T05:34:00;6.60;1.00
23719;DHT22;43322;52.230;5.702;2024-03-02T05:36:26;6.60;1.00
23719;DHT22;43322;52.230;5.702;2024-03-02T05:38:53;6.50;1.00
23719;DHT22;43322;52.230;5.702;2024-03-02T05:41:20;6.50;1.00
23719;DHT22;43322;52.230;5.702;2024-03-02T05:43:47;6.50;1.00
23719;DHT22;43322;52.230;5.702;2024-03-02T05:46:15;6.50;1.00
23719;DHT22;43322;52.230;5.702;2024-03-02T05:48:43;6.60;99.90
23719;DHT22;43322;52.230;5.702;2024-03-02T05:51:10;7.00;1.00
23719;DHT22;43322;52.230;5.702;2024-03-02T05:53:36;6.60;1.00
23719;DHT22;43322;52.230;5.702;2024-03-02T05:56:05;6.60;1.00
23719;DHT22;43322;52.230;5.702;2024-03-02T05:58:32;6.40;6.90
23719;DHT22;43322;52.230;5.702;2024-03-02T06:01:11;6.60;99.90
23719;DHT22;43322;52.230;5.702;2024-03-02T06:03:38;6.60;1.00
23719;DHT22;43322;52.230;5.702;2024-03-02T06:06:06;6.60;47.30
23719;DHT22;43322;52.230;5.702;2024-03-02T06:08:33;6.50;1.00
23719;DHT22;43322;52.230;5.702;2024-03-02T06:11:00;6.60;99.90
23719;DHT22;43322;52.230;5.702;2024-03-02T06:13:27;6.50;99.90
23719;DHT22;43322;52.230;5.702;2024-03-02T06:15:54;6.60;99.90
23719;DHT22;43322;52.230;5.702;2024-03-02T06:18:21;6.60;9.60
23719;DHT22;43322;52.230;5.702;2024-03-02T06:20:47;6.60;99.90
23719;DHT22;43322;52.230;5.702;2024-03-02T06:23:16;6.60;99.90
23719;DHT22;43322;52.230;5.702;2024-03-02T06:25:42;6.50;1.00
23719;DHT22;43322;52.230;5.702;2024-03-02T06:28:09;6.70;1.00
23719;DHT22;43322;52.230;5.702;2024-03-02T06:30:36;6.50;1.00
23719;DHT22;43322;52.230;5.702;2024-03-02T06:33:03;6.40;1.00
23719;DHT22;43322;52.230;5.702;2024-03-02T06:35:31;6.20;1.00
23719;DHT22;43322;52.230;5.702;2024-03-02T06:37:58;6.40;1.00
23719;DHT22;43322;52.230;5.702;2024-03-02T06:40:26;6.40;1.00
23719;DHT22;43322;52.230;5.702;2024-03-02T06:42:53;6.20;1.00
23719;DHT22;43322;52.230;5.702;2024-03-02T06:45:20;6.30;1.00
23719;DHT22;43322;52.230;5.702;2024-03-02T06:47:47;6.20;48.20
23719;DHT22;43322;52.230;5.702;2024-03-02T06:50:14;6.10;99.90
23719;DHT22;43322;52.230;5.702;2024-03-02T06:52:40;6.10;1.00
23719;DHT22;43322;52.230;5.702;2024-03-02T06:55:07;6.10;1.00
23719;DHT22;43322;52.230;5.702;2024-03-02T06:57:36;5.90;99.90
23719;DHT22;43322;52.230;5.702;2024-03-02T07:00:03;6.00;99.90
23719;DHT22;43322;52.230;5.702;2024-03-02T07:02:31;5.90;99.90
23719;DHT22;43322;52.230;5.702;2024-03-02T07:04:58;6.10;99.90
23719;DHT22;43322;52.230;5.702;2024-03-02T07:07:25;6.30;99.90
23719;DHT22;43322;52.230;5.702;2024-03-02T07:09:52;6.20;99.90
23719;DHT22;43322;52.230;5.702;2024-03-02T07:12:19;6.20;99.90
23719;DHT22;43322;52.230;5.702;2024-03-02T07:14:47;6.20;99.90
23719;DHT22;43322;52.230;5.702;2024-03-02T07:17:31;6.20;99.90
23719;DHT22;43322;52.230;5.702;2024-03-02T07:19:58;6.40;24.10
23719;DHT22;43322;52.230;5.702;2024-03-02T07:22:25;6.50;1.00
23719;DHT22;43322;52.230;5.702;2024-03-02T07:24:52;6.70;1.00
23719;DHT22;43322;52.230;5.702;2024-03-02T07:27:19;6.80;99.90
23719;DHT22;43322;52.230;5.702;2024-03-02T07:29:47;7.10;99.90
23719;DHT22;43322;52.230;5.702;2024-03-02T07:32:14;7.30;1.00
23719;DHT22;43322;52.230;5.702;2024-03-02T07:34:41;7.80;99.90
23719;DHT22;43322;52.230;5.702;2024-03-02T07:37:07;7.80;1.00
23719;DHT22;43322;52.230;5.702;2024-03-02T07:39:35;8.00;99.90
23719;DHT22;43322;52.230;5.702;2024-03-02T07:42:02;8.10;1.00
23719;DHT22;43322;52.230;5.702;2024-03-02T07:44:29;8.30;1.00
23719;DHT22;43322;52.230;5.702;2024-03-02T07:46:57;9.10;1.00
23719;DHT22;43322;52.230;5.702;2024-03-02T07:49:24;9.80;99.90
23719;DHT22;43322;52.230;5.702;2024-03-02T07:51:51;10.50;99.90
23719;DHT22;43322;52.230;5.702;2024-03-02T07:54:18;11.40;99.90
23719;DHT22;43322;52.230;5.702;2024-03-02T07:56:45;12.00;1.00
23719;DHT22;43322;52.230;5.702;2024-03-02T07:59:13;12.40;99.90
23719;DHT22;43322;52.230;5.702;2024-03-02T08:01:40;13.20;99.90
23719;DHT22;43322;52.230;5.702;2024-03-02T08:04:08;13.80;99.90
23719;DHT22;43322;52.230;5.702;2024-03-02T08:06:35;14.20;89.20
23719;DHT22;43322;52.230;5.702;2024-03-02T08:09:02;14.80;67.30
23719;DHT22;43322;52.230;5.702;2024-03-02T08:11:34;14.80;1.00
23719;DHT22;43322;52.230;5.702;2024-03-02T08:14:01;13.90;1.00
23719;DHT22;43322;52.230;5.702;2024-03-02T08:16:29;13.60;1.00
23719;DHT22;43322;52.230;5.702;2024-03-02T08:18:56;13.70;1.00
23719;DHT22;43322;52.230;5.702;2024-03-02T08:21:25;13.60;1.00
23719;DHT22;43322;52.230;5.702;2024-03-02T08:23:52;13.30;1.90
23719;DHT22;43322;52.230;5.702;2024-03-02T08:26:18;12.80;99.90
23719;DHT22;43322;52.230;5.702;2024-03-02T08:28:45;12.00;99.90
23719;DHT22;43322;52.230;5.702;2024-03-02T08:31:12;11.60;99.90
23719;DHT22;43322;52.230;5.702;2024-03-02T08:33:39;11.60;99.90
23719;DHT22;43322;52.230;5.702;2024-03-02T08:36:08;11.40;99.90
23719;DHT22;43322;52.230;5.702;2024-03-02T08:38:37;11.00;99.90
23719;DHT22;43322;52.230;5.702;2024-03-02T08:41:04;10.80;1.00
23719;DHT22;43322;52.230;5.702;2024-03-02T08:43:31;10.90;1.00
23719;DHT22;43322;52.230;5.702;2024-03-02T08:45:58;10.60;1.00
23719;DHT22;43322;52.230;5.702;2024-03-02T08:48:25;10.80;1.00
23719;DHT22;43322;52.230;5.702;2024-03-02T08:50:52;11.10;1.00
23719;DHT22;43322;52.230;5.702;2024-03-02T08:53:18;11.00;1.00
23719;DHT22;43322;52.230;5.702;2024-03-02T08:55:47;11.50;99.90
23719;DHT22;43322;52.230;5.702;2024-03-02T08:58:14;11.50;99.90
23719;DHT22;43322;52.230;5.702;2024-03-02T09:00:40;11.20;99.90
23719;DHT22;43322;52.230;5.702;2024-03-02T09:03:08;11.70;99.90
23719;DHT22;43322;52.230;5.702;2024-03-02T09:05:34;11.40;99.90
23719;DHT22;43322;52.230;5.702;2024-03-02T09:08:01;11.30;1.00
23719;DHT22;43322;52.230;5.702;2024-03-02T09:10:29;11.00;1.00
23719;DHT22;43322;52.230;5.702;2024-03-02T09:12:58;11.70;1.00
23719;DHT22;43322;52.230;5.702;2024-03-02T09:15:25;12.20;1.00
23719;DHT22;43322;52.230;5.702;2024-03-02T09:17:52;12.50;99.90
23719;DHT22;43322;52.230;5.702;2024-03-02T09:20:18;12.40;99.90
23719;DHT22;43322;52.230;5.702;2024-03-02T09:22:45;12.30;99.90
23719;DHT22;43322;52.230;5.702;2024-03-02T09:25:13;12.00;99.90
23719;DHT22;43322;52.230;5.702;2024-03-02T09:27:40;11.60;99.90
23719;DHT22;43322;52.230;5.702;2024-03-02T09:30:10;12.20;99.90
23719;DHT22;43322;52.230;5.702;2024-03-02T09:32:39;11.40;99.90
23719;DHT22;43322;52.230;5.702;2024-03-02T09:35:06;11.30;99.90
23719;DHT22;43322;52.230;5.702;2024-03-02T09:37:34;10.70;99.90
23719;DHT22;43322;52.230;5.702;2024-03-02T09:40:01;10.80;1.00
23719;DHT22;43322;52.230;5.702;2024-03-02T09:42:28;10.70;1.00
23719;DHT22;43322;52.230;5.702;2024-03-02T09:44:56;10.60;99.90
23719;DHT22;43322;52.230;5.702;2024-03-02T09:47:24;10.50;1.00
23719;DHT22;43322;52.230;5.702;2024-03-02T09:49:51;10.50;99.90
23719;DHT22;43322;52.230;5.702;2024-03-02T09:52:19;10.20;1.00
23719;DHT22;43322;52.230;5.702;2024-03-02T09:54:47;10.40;1.00
23719;DHT22;43322;52.230;5.702;2024-03-02T09:57:14;10.70;1.00
23719;DHT22;43322;52.230;5.702;2024-03-02T09:59:41;10.90;99.90
23719;DHT22;43322;52.230;5.702;2024-03-02T10:02:08;11.00;99.90
23719;DHT22;43322;52.230;5.702;2024-03-02T10:04:36;11.30;1.00
23719;DHT22;43322;52.230;5.702;2024-03-02T10:07:10;11.30;99.90
23719;DHT22;43322;52.230;5.702;2024-03-02T10:09:37;11.00;99.90
23719;DHT22;43322;52.230;5.702;2024-03-02T10:12:04;11.40;99.90
23719;DHT22;43322;52.230;5.702;2024-03-02T10:14:32;11.70;99.90
23719;DHT22;43322;52.230;5.702;2024-03-02T10:17:02;12.20;99.90
23719;DHT22;43322;52.230;5.702;2024-03-02T10:19:30;12.40;99.90
23719;DHT22;43322;52.230;5.702;2024-03-02T10:22:00;12.30;99.90
23719;DHT22;43322;52.230;5.702;2024-03-02T10:24:28;12.30;99.90
23719;DHT22;43322;52.230;5.702;2024-03-02T10:27:01;12.40;99.90
23719;DHT22;43322;52.230;5.702;2024-03-02T10:29:29;12.90;99.90
23719;DHT22;43322;52.230;5.702;2024-03-02T10:31:57;13.00;99.90
23719;DHT22;43322;52.230;5.702;2024-03-02T10:34:24;13.00;99.90
23719;DHT22;43322;52.230;5.702;2024-03-02T10:36:52;13.00;99.90
23719;DHT22;43322;52.230;5.702;2024-03-02T10:39:20;12.80;99.90
23719;DHT22;43322;52.230;5.702;2024-03-02T10:41:49;12.80;99.90
23719;DHT22;43322;52.230;5.702;2024-03-02T10:44:19;12.80;99.90
23719;DHT22;43322;52.230;5.702;2024-03-02T10:46:47;12.90;99.90
23719;DHT22;43322;52.230;5.702;2024-03-02T10:49:15;12.80;99.90
23719;DHT22;43322;52.230;5.702;2024-03-02T10:51:43;12.60;99.90
23719;DHT22;43322;52.230;5.702;2024-03-02T10:54:10;12.80;99.90
23719;DHT22;43322;52.230;5.702;2024-03-02T10:56:39;12.90;99.90
23719;DHT22;43322;52.230;5.702;2024-03-02T10:59:12;12.90;99.90
23719;DHT22;43322;52.230;5.702;2024-03-02T11:01:43;12.90;99.90
23719;DHT22;43322;52.230;5.702;2024-03-02T11:04:13;13.20;73.30
23719;DHT22;43322;52.230;5.702;2024-03-02T11:06:46;13.60;99.90
23719;DHT22;43322;52.230;5.702;2024-03-02T11:09:14;13.70;50.10
23719;DHT22;43322;52.230;5.702;2024-03-02T11:11:45;13.90;99.90
23719;DHT22;43322;52.230;5.702;2024-03-02T11:14:17;13.70;99.90
23719;DHT22;43322;52.230;5.702;2024-03-02T11:16:44;14.00;99.90
23719;DHT22;43322;52.230;5.702;2024-03-02T11:19:13;14.10;99.90
23719;DHT22;43322;52.230;5.702;2024-03-02T11:21:40;14.40;11.80
23719;DHT22;43322;52.230;5.702;2024-03-02T11:24:29;14.60;10.60
23719;DHT22;43322;52.230;5.702;2024-03-02T11:27:00;15.10;1.00
23719;DHT22;43322;52.230;5.702;2024-03-02T11:29:42;15.80;34.50
23719;DHT22;43322;52.230;5.702;2024-03-02T11:32:14;16.20;1.00
23719;DHT22;43322;52.230;5.702;2024-03-02T11:34:44;16.60;11.80
23719;DHT22;43322;52.230;5.702;2024-03-02T11:37:12;17.10;1.00
23719;DHT22;43322;52.230;5.702;2024-03-02T11:39:39;17.20;1.00
23719;DHT22;43322;52.230;5.702;2024-03-02T11:42:08;17.40;1.00
23719;DHT22;43322;52.230;5.702;2024-03-02T11:44:36;18.20;1.00
23719;DHT22;43322;52.230;5.702;2024-03-02T11:47:05;18.80;5.00
23719;DHT22;43322;52.230;5.702;2024-03-02T11:49:39;19.40;1.00
23719;DHT22;43322;52.230;5.702;2024-03-02T11:52:07;20.10;1.00
23719;DHT22;43322;52.230;5.702;2024-03-02T11:54:35;20.20;1.00
23719;DHT22;43322;52.230;5.702;2024-03-02T11:57:05;20.30;1.00
23719;DHT22;43322;52.230;5.702;2024-03-02T11:59:33;20.50;1.00
23719;DHT22;43322;52.230;5.702;2024-03-02T12:02:01;20.70;1.00
23719;DHT22;43322;52.230;5.702;2024-03-02T12:04:29;21.10;1.00
23719;DHT22;43322;52.230;5.702;2024-03-02T12:06:58;21.30;1.00
23719;DHT22;43322;52.230;5.702;2024-03-02T12:09:26;21.60;1.00
23719;DHT22;43322;52.230;5.702;2024-03-02T12:12:04;21.60;1.00
23719;DHT22;43322;52.230;5.702;2024-03-02T12:14:35;21.50;1.00
23719;DHT22;43322;52.230;5.702;2024-03-02T12:17:02;21.50;1.00
23719;DHT22;43322;52.230;5.702;2024-03-02T12:19:29;20.70;1.00
23719;DHT22;43322;52.230;5.702;2024-03-02T12:21:57;20.30;1.00
23719;DHT22;43322;52.230;5.702;2024-03-02T12:24:25;19.30;1.00
23719;DHT22;43322;52.230;5.702;2024-03-02T12:26:53;18.00;1.00
23719;DHT22;43322;52.230;5.702;2024-03-02T12:29:20;17.20;1.00
23719;DHT22;43322;52.230;5.702;2024-03-02T12:31:49;16.70;1.00
23719;DHT22;43322;52.230;5.702;2024-03-02T12:34:18;16.50;1.00
23719;DHT22;43322;52.230;5.702;2024-03-02T12:36:46;16.50;1.00
23719;DHT22;43322;52.230;5.702;2024-03-02T12:39:15;16.50;1.00
23719;DHT22;43322;52.230;5.702;2024-03-02T12:41:42;16.50;1.00
23719;DHT22;43322;52.230;5.702;2024-03-02T12:44:09;16.30;1.00
23719;DHT22;43322;52.230;5.702;2024-03-02T12:46:36;16.20;1.00
23719;DHT22;43322;52.230;5.702;2024-03-02T12:49:08;16.10;1.00
23719;DHT22;43322;52.230;5.702;2024-03-02T12:51:36;15.90;1.00
23719;DHT22;43322;52.230;5.702;2024-03-02T12:54:03;16.40;1.00
23719;DHT22;43322;52.230;5.702;2024-03-02T12:56:31;17.10;1.00
23719;DHT22;43322;52.230;5.702;2024-03-02T12:58:59;18.10;1.00
23719;DHT22;43322;52.230;5.702;2024-03-02T13:01:26;18.70;1.00
23719;DHT22;43322;52.230;5.702;2024-03-02T13:03:53;18.90;1.00
23719;DHT22;43322;52.230;5.702;2024-03-02T13:06:23;19.60;1.00
23719;DHT22;43322;52.230;5.702;2024-03-02T13:08:53;20.10;1.00
23719;DHT22;43322;52.230;5.702;2024-03-02T13:11:21;19.70;1.00
23719;DHT22;43322;52.230;5.702;2024-03-02T13:13:48;19.30;1.00
23719;DHT22;43322;52.230;5.702;2024-03-02T13:16:15;19.70;1.00
23719;DHT22;43322;52.230;5.702;2024-03-02T13:18:45;20.00;1.00
23719;DHT22;43322;52.230;5.702;2024-03-02T13:21:11;19.60;1.00
23719;DHT22;43322;52.230;5.702;2024-03-02T13:23:40;20.20;1.00
23719;DHT22;43322;52.230;5.702;2024-03-02T13:26:06;20.60;1.00
23719;DHT22;43322;52.230;5.702;2024-03-02T13:28:36;20.20;1.00
23719;DHT22;43322;52.230;5.702;2024-03-02T13:31:03;20.30;1.00
23719;DHT22;43322;52.230;5.702;2024-03-02T13:33:31;20.10;1.00
23719;DHT22;43322;52.230;5.702;2024-03-02T13:35:58;20.40;1.00
23719;DHT22;43322;52.230;5.702;2024-03-02T13:38:26;20.20;1.00
23719;DHT22;43322;52.230;5.702;2024-03-02T13:40:54;19.80;1.00
23719;DHT22;43322;52.230;5.702;2024-03-02T13:43:21;19.10;1.00
23719;DHT22;43322;52.230;5.702;2024-03-02T13:45:49;18.80;1.00
23719;DHT22;43322;52.230;5.702;2024-03-02T13:48:17;18.60;1.00
23719;DHT22;43322;52.230;5.702;2024-03-02T13:50:44;17.90;1.00
23719;DHT22;43322;52.230;5.702;2024-03-02T13:53:12;17.60;1.00
23719;DHT22;43322;52.230;5.702;2024-03-02T13:55:38;17.60;1.00
23719;DHT22;43322;52.230;5.702;2024-03-02T13:58:08;17.70;1.00
23719;DHT22;43322;52.230;5.702;2024-03-02T14:00:35;17.60;1.00
23719;DHT22;43322;52.230;5.702;2024-03-02T14:03:04;17.50;1.00
23719;DHT22;43322;52.230;5.702;2024-03-02T14:05:32;17.80;1.00
23719;DHT22;43322;52.230;5.702;2024-03-02T14:07:59;17.50;1.00
23719;DHT22;43322;52.230;5.702;2024-03-02T14:10:26;17.20;1.00
23719;DHT22;43322;52.230;5.702;2024-03-02T14:12:54;17.20;1.00
23719;DHT22;43322;52.230;5.702;2024-03-02T14:15:23;17.00;1.00
23719;DHT22;43322;52.230;5.702;2024-03-02T14:17:50;16.50;1.00
23719;DHT22;43322;52.230;5.702;2024-03-02T14:20:17;16.40;1.00
23719;DHT22;43322;52.230;5.702;2024-03-02T14:22:47;15.90;1.00
23719;DHT22;43322;52.230;5.702;2024-03-02T14:25:14;15.60;1.00
23719;DHT22;43322;52.230;5.702;2024-03-02T14:27:42;15.40;1.00
23719;DHT22;43322;52.230;5.702;2024-03-02T14:30:09;15.20;1.00
23719;DHT22;43322;52.230;5.702;2024-03-02T14:32:38;15.30;1.00
23719;DHT22;43322;52.230;5.702;2024-03-02T14:35:05;14.80;1.00
23719;DHT22;43322;52.230;5.702;2024-03-02T14:37:35;14.70;1.00
23719;DHT22;43322;52.230;5.702;2024-03-02T14:40:02;14.60;1.00
23719;DHT22;43322;52.230;5.702;2024-03-02T14:42:32;14.50;1.00
23719;DHT22;43322;52.230;5.702;2024-03-02T14:44:58;14.40;1.00
23719;DHT22;43322;52.230;5.702;2024-03-02T14:47:25;14.40;1.00
23719;DHT22;43322;52.230;5.702;2024-03-02T14:49:54;14.20;1.00
23719;DHT22;43322;52.230;5.702;2024-03-02T14:52:21;14.20;1.00
23719;DHT22;43322;52.230;5.702;2024-03-02T14:54:47;14.20;1.00
23719;DHT22;43322;52.230;5.702;2024-03-02T14:57:14;14.20;1.00
23719;DHT22;43322;52.230;5.702;2024-03-02T14:59:41;14.30;1.00
23719;DHT22;43322;52.230;5.702;2024-03-02T15:02:08;14.60;1.00
23719;DHT22;43322;52.230;5.702;2024-03-02T15:04:35;14.50;1.00
23719;DHT22;43322;52.230;5.702;2024-03-02T15:07:04;14.60;1.00
23719;DHT22;43322;52.230;5.702;2024-03-02T15:09:31;14.70;1.00
23719;DHT22;43322;52.230;5.702;2024-03-02T15:12:00;14.90;1.00
23719;DHT22;43322;52.230;5.702;2024-03-02T15:14:27;14.90;1.00
23719;DHT22;43322;52.230;5.702;2024-03-02T15:16:54;14.90;1.00
23719;DHT22;43322;52.230;5.702;2024-03-02T15:19:21;14.70;1.00
23719;DHT22;43322;52.230;5.702;2024-03-02T15:21:48;14.90;1.00
23719;DHT22;43322;52.230;5.702;2024-03-02T15:24:16;15.00;1.00
23719;DHT22;43322;52.230;5.702;2024-03-02T15:26:43;15.20;1.00
23719;DHT22;43322;52.230;5.702;2024-03-02T15:29:10;15.60;1.00
23719;DHT22;43322;52.230;5.702;2024-03-02T15:31:37;15.80;1.00
23719;DHT22;43322;52.230;5.702;2024-03-02T15:34:04;15.70;1.00
23719;DHT22;43322;52.230;5.702;2024-03-02T15:36:33;15.40;1.00
23719;DHT22;43322;52.230;5.702;2024-03-02T15:39:00;15.80;1.00
23719;DHT22;43322;52.230;5.702;2024-03-02T15:41:29;15.90;1.00
23719;DHT22;43322;52.230;5.702;2024-03-02T15:43:56;15.70;1.00
23719;DHT22;43322;52.230;5.702;2024-03-02T15:46:23;15.40;1.00
23719;DHT22;43322;52.230;5.702;2024-03-02T15:48:50;15.10;1.00